sensor_id;sensor_type;location;lat;lon;timestamp;P1;durP1;ratioP1;P2;durP2;ratioP2
41259;SDS011;26993;48.958;9.330;2022-08-01T00:00:22;3.78;;;2.85;;
41259;SDS011;26993;48.958;9.330;2022-08-01T00:03:08;4.30;;;2.40;;
41259;SDS011;26993;48.958;9.330;2022-08-01T00:05:55;2.38;;;2.17;;
41259;SDS011;26993;48.958;9.330;2022-08-01T00:08:43;3.05;;;2.30;;
41259;SDS011;26993;48.958;9.330;2022-08-01T00:11:30;4.72;;;2.85;;
41259;SDS011;26993;48.958;9.330;2022-08-01T00:14:17;3.72;;;2.60;;
41259;SDS011;26993;48.958;9.330;2022-08-01T00:17:04;3.60;;;2.80;;
41259;SDS011;26993;48.958;9.330;2022-08-01T00:19:51;3.45;;;2.85;;
41259;SDS011;26993;48.958;9.330;2022-08-01T00:22:38;2.92;;;2.60;;
41259;SDS011;26993;48.958;9.330;2022-08-01T00:25:26;4.45;;;2.53;;
41259;SDS011;26993;48.958;9.330;2022-08-01T00:28:13;6.03;;;2.70;;
41259;SDS011;26993;48.958;9.330;2022-08-01T00:31:00;4.80;;;2.50;;
41259;SDS011;26993;48.958;9.330;2022-08-01T00:33:47;3.50;;;2.67;;
41259;SDS011;26993;48.958;9.330;2022-08-01T00:36:33;5.75;;;2.53;;
41259;SDS011;26993;48.958;9.330;2022-08-01T00:39:20;4.20;;;2.70;;
41259;SDS011;26993;48.958;9.330;2022-08-01T00:42:09;4.15;;;2.55;;
41259;SDS011;26993;48.958;9.330;2022-08-01T00:44:57;3.60;;;2.88;;
41259;SDS011;26993;48.958;9.330;2022-08-01T00:47:43;2.80;;;2.60;;
41259;SDS011;26993;48.958;9.330;2022-08-01T00:50:30;4.05;;;2.63;;
41259;SDS011;26993;48.958;9.330;2022-08-01T00:53:17;3.97;;;2.78;;
41259;SDS011;26993;48.958;9.330;2022-08-01T00:56:04;3.90;;;2.70;;
41259;SDS011;26993;48.958;9.330;2022-08-01T00:58:53;3.58;;;2.67;;
41259;SDS011;26993;48.958;9.330;2022-08-01T01:01:40;5.40;;;2.67;;
41259;SDS011;26993;48.958;9.330;2022-08-01T01:04:27;8.18;;;3.25;;
41259;SDS011;26993;48.958;9.330;2022-08-01T01:07:15;4.45;;;2.80;;
41259;SDS011;26993;48.958;9.330;2022-08-01T01:10:12;4.53;;;2.90;;
41259;SDS011;26993;48.958;9.330;2022-08-01T01:13:04;6.35;;;2.90;;
41259;SDS011;26993;48.958;9.330;2022-08-01T01:15:55;4.70;;;2.97;;
41259;SDS011;26993;48.958;9.330;2022-08-01T01:18:45;3.67;;;2.88;;
41259;SDS011;26993;48.958;9.330;2022-08-01T01:21:39;4.93;;;2.65;;
41259;SDS011;26993;48.958;9.330;2022-08-01T01:24:34;3.88;;;2.60;;
41259;SDS011;26993;48.958;9.330;2022-08-01T01:27:29;4.70;;;2.92;;
41259;SDS011;26993;48.958;9.330;2022-08-01T01:30:27;4.00;;;2.83;;
41259;SDS011;26993;48.958;9.330;2022-08-01T01:33:17;3.40;;;2.85;;
41259;SDS011;26993;48.958;9.330;2022-08-01T01:36:07;5.45;;;2.78;;
41259;SDS011;26993;48.958;9.330;2022-08-01T01:38:57;3.13;;;2.70;;
41259;SDS011;26993;48.958;9.330;2022-08-01T01:41:46;7.10;;;2.90;;
41259;SDS011;26993;48.958;9.330;2022-08-01T01:44:35;4.97;;;2.60;;
41259;SDS011;26993;48.958;9.330;2022-08-01T01:47:24;5.00;;;3.22;;
41259;SDS011;26993;48.958;9.330;2022-08-01T01:50:13;4.22;;;2.75;;
41259;SDS011;26993;48.958;9.330;2022-08-01T01:53:01;4.85;;;3.08;;
41259;SDS011;26993;48.958;9.330;2022-08-01T01:55:50;4.80;;;3.05;;
41259;SDS011;26993;48.958;9.330;2022-08-01T01:58:39;4.18;;;3.05;;
41259;SDS011;26993;48.958;9.330;2022-08-01T02:01:28;6.13;;;3.20;;
41259;SDS011;26993;48.958;9.330;2022-08-01T02:04:19;4.78;;;3.15;;
41259;SDS011;26993;48.958;9.330;2022-08-01T02:07:08;5.75;;;3.58;;
41259;SDS011;26993;48.958;9.330;2022-08-01T02:09:56;3.30;;;2.80;;
41259;SDS011;26993;48.958;9.330;2022-08-01T02:12:46;4.60;;;3.00;;
41259;SDS011;26993;48.958;9.330;2022-08-01T02:15:36;5.57;;;3.30;;
41259;SDS011;26993;48.958;9.330;2022-08-01T02:18:24;4.15;;;2.85;;
41259;SDS011;26993;48.958;9.330;2022-08-01T02:21:14;3.58;;;2.97;;
41259;SDS011;26993;48.958;9.330;2022-08-01T02:24:07;4.68;;;2.95;;
41259;SDS011;26993;48.958;9.330;2022-08-01T02:27:00;4.90;;;3.22;;
41259;SDS011;26993;48.958;9.330;2022-08-01T02:29:52;4.00;;;2.95;;
41259;SDS011;26993;48.958;9.330;2022-08-01T02:32:44;4.05;;;3.22;;
41259;SDS011;26993;48.958;9.330;2022-08-01T02:35:35;3.28;;;2.95;;
41259;SDS011;26993;48.958;9.330;2022-08-01T02:38:26;3.80;;;3.00;;
41259;SDS011;26993;48.958;9.330;2022-08-01T02:41:17;4.28;;;3.30;;
41259;SDS011;26993;48.958;9.330;2022-08-01T02:44:07;4.80;;;3.08;;
41259;SDS011;26993;48.958;9.330;2022-08-01T02:46:57;6.25;;;3.15;;
41259;SDS011;26993;48.958;9.330;2022-08-01T02:49:47;3.53;;;3.05;;
41259;SDS011;26993;48.958;9.330;2022-08-01T02:52:37;6.50;;;3.47;;
41259;SDS011;26993;48.958;9.330;2022-08-01T02:55:27;6.55;;;3.58;;
41259;SDS011;26993;48.958;9.330;2022-08-01T02:58:15;4.70;;;3.20;;
41259;SDS011;26993;48.958;9.330;2022-08-01T03:01:04;4.30;;;3.38;;
41259;SDS011;26993;48.958;9.330;2022-08-01T03:03:53;3.20;;;2.88;;
41259;SDS011;26993;48.958;9.330;2022-08-01T03:06:41;3.80;;;3.22;;
41259;SDS011;26993;48.958;9.330;2022-08-01T03:09:29;4.93;;;3.53;;
41259;SDS011;26993;48.958;9.330;2022-08-01T03:12:23;5.05;;;3.20;;
41259;SDS011;26993;48.958;9.330;2022-08-01T03:15:12;6.25;;;3.63;;
41259;SDS011;26993;48.958;9.330;2022-08-01T03:17:59;3.95;;;3.13;;
41259;SDS011;26993;48.958;9.330;2022-08-01T03:20:48;6.13;;;3.20;;
41259;SDS011;26993;48.958;9.330;2022-08-01T03:23:36;5.15;;;3.85;;
41259;SDS011;26993;48.958;9.330;2022-08-01T03:26:26;4.65;;;3.72;;
41259;SDS011;26993;48.958;9.330;2022-08-01T03:29:17;5.43;;;3.35;;
41259;SDS011;26993;48.958;9.330;2022-08-01T03:32:07;3.80;;;3.38;;
41259;SDS011;26993;48.958;9.330;2022-08-01T03:34:56;4.88;;;3.67;;
41259;SDS011;26993;48.958;9.330;2022-08-01T03:37:44;6.35;;;3.70;;
41259;SDS011;26993;48.958;9.330;2022-08-01T03:40:35;4.38;;;3.47;;
41259;SDS011;26993;48.958;9.330;2022-08-01T03:43:26;4.15;;;3.60;;
41259;SDS011;26993;48.958;9.330;2022-08-01T03:46:19;4.22;;;3.80;;
41259;SDS011;26993;48.958;9.330;2022-08-01T03:49:11;4.07;;;3.30;;
41259;SDS011;26993;48.958;9.330;2022-08-01T03:52:04;4.00;;;3.60;;
41259;SDS011;26993;48.958;9.330;2022-08-01T03:54:53;4.45;;;3.58;;
41259;SDS011;26993;48.958;9.330;2022-08-01T03:57:41;6.93;;;3.45;;
41259;SDS011;26993;48.958;9.330;2022-08-01T04:00:30;4.93;;;3.63;;
41259;SDS011;26993;48.958;9.330;2022-08-01T04:03:18;6.03;;;3.42;;
41259;SDS011;26993;48.958;9.330;2022-08-01T04:06:06;4.15;;;3.65;;
41259;SDS011;26993;48.958;9.330;2022-08-01T04:08:55;3.58;;;3.10;;
41259;SDS011;26993;48.958;9.330;2022-08-01T04:11:42;4.55;;;3.40;;
41259;SDS011;26993;48.958;9.330;2022-08-01T04:14:29;5.00;;;3.60;;
41259;SDS011;26993;48.958;9.330;2022-08-01T04:17:15;5.85;;;3.80;;
41259;SDS011;26993;48.958;9.330;2022-08-01T04:20:04;3.90;;;3.50;;
41259;SDS011;26993;48.958;9.330;2022-08-01T04:22:51;3.75;;;3.45;;
41259;SDS011;26993;48.958;9.330;2022-08-01T04:25:38;4.80;;;3.85;;
41259;SDS011;26993;48.958;9.330;2022-08-01T04:28:28;5.93;;;3.67;;
41259;SDS011;26993;48.958;9.330;2022-08-01T04:31:16;4.13;;;3.72;;
41259;SDS011;26993;48.958;9.330;2022-08-01T04:34:04;6.32;;;3.70;;
41259;SDS011;26993;48.958;9.330;2022-08-01T04:36:54;4.15;;;3.35;;
41259;SDS011;26993;48.958;9.330;2022-08-01T04:39:42;3.97;;;3.58;;
41259;SDS011;26993;48.958;9.330;2022-08-01T04:42:30;6.00;;;3.60;;
41259;SDS011;26993;48.958;9.330;2022-08-01T04:45:17;7.63;;;3.85;;
41259;SDS011;26993;48.958;9.330;2022-08-01T04:48:05;4.63;;;3.60;;
41259;SDS011;26993;48.958;9.330;2022-08-01T04:50:53;6.65;;;3.97;;
41259;SDS011;26993;48.958;9.330;2022-08-01T04:53:41;7.03;;;3.72;;
41259;SDS011;26993;48.958;9.330;2022-08-01T04:56:28;4.88;;;3.55;;
41259;SDS011;26993;48.958;9.330;2022-08-01T04:59:15;5.15;;;3.70;;
41259;SDS011;26993;48.958;9.330;2022-08-01T05:02:19;6.03;;;4.00;;
41259;SDS011;26993;48.958;9.330;2022-08-01T05:05:06;7.35;;;4.38;;
41259;SDS011;26993;48.958;9.330;2022-08-01T05:07:55;5.82;;;3.85;;
41259;SDS011;26993;48.958;9.330;2022-08-01T05:10:43;4.68;;;3.80;;
41259;SDS011;26993;48.958;9.330;2022-08-01T05:13:30;5.80;;;4.03;;
41259;SDS011;26993;48.958;9.330;2022-08-01T05:16:17;13.20;;;3.92;;
41259;SDS011;26993;48.958;9.330;2022-08-01T05:19:03;7.05;;;3.58;;
41259;SDS011;26993;48.958;9.330;2022-08-01T05:21:50;5.93;;;3.80;;
41259;SDS011;26993;48.958;9.330;2022-08-01T05:24:37;4.13;;;3.70;;
41259;SDS011;26993;48.958;9.330;2022-08-01T05:27:26;5.53;;;3.50;;
41259;SDS011;26993;48.958;9.330;2022-08-01T05:30:13;7.30;;;3.90;;
41259;SDS011;26993;48.958;9.330;2022-08-01T05:33:00;3.72;;;3.30;;
41259;SDS011;26993;48.958;9.330;2022-08-01T05:35:46;4.90;;;3.33;;
41259;SDS011;26993;48.958;9.330;2022-08-01T05:38:33;6.75;;;3.75;;
41259;SDS011;26993;48.958;9.330;2022-08-01T05:41:20;7.43;;;4.03;;
41259;SDS011;26993;48.958;9.330;2022-08-01T05:44:08;9.13;;;4.22;;
41259;SDS011;26993;48.958;9.330;2022-08-01T05:46:56;6.82;;;3.80;;
41259;SDS011;26993;48.958;9.330;2022-08-01T05:49:42;5.13;;;4.00;;
41259;SDS011;26993;48.958;9.330;2022-08-01T05:52:29;5.97;;;3.70;;
41259;SDS011;26993;48.958;9.330;2022-08-01T05:55:16;3.95;;;3.53;;
41259;SDS011;26993;48.958;9.330;2022-08-01T05:58:03;6.45;;;3.90;;
41259;SDS011;26993;48.958;9.330;2022-08-01T06:00:51;8.85;;;3.97;;
41259;SDS011;26993;48.958;9.330;2022-08-01T06:03:37;6.95;;;4.10;;
41259;SDS011;26993;48.958;9.330;2022-08-01T06:06:25;6.05;;;4.10;;
41259;SDS011;26993;48.958;9.330;2022-08-01T06:09:11;6.95;;;3.63;;
41259;SDS011;26993;48.958;9.330;2022-08-01T06:11:58;5.00;;;3.63;;
41259;SDS011;26993;48.958;9.330;2022-08-01T06:14:45;9.63;;;4.13;;
41259;SDS011;26993;48.958;9.330;2022-08-01T06:17:33;5.20;;;3.30;;
41259;SDS011;26993;48.958;9.330;2022-08-01T06:20:20;3.92;;;3.30;;
41259;SDS011;26993;48.958;9.330;2022-08-01T06:23:06;4.97;;;3.15;;
41259;SDS011;26993;48.958;9.330;2022-08-01T06:25:53;5.88;;;3.50;;
41259;SDS011;26993;48.958;9.330;2022-08-01T06:28:40;6.68;;;3.20;;
41259;SDS011;26993;48.958;9.330;2022-08-01T06:31:27;3.97;;;3.08;;
41259;SDS011;26993;48.958;9.330;2022-08-01T06:34:17;8.27;;;3.03;;
41259;SDS011;26993;48.958;9.330;2022-08-01T06:37:04;4.13;;;2.97;;
41259;SDS011;26993;48.958;9.330;2022-08-01T06:39:51;5.13;;;3.22;;
41259;SDS011;26993;48.958;9.330;2022-08-01T06:42:38;4.63;;;2.90;;
41259;SDS011;26993;48.958;9.330;2022-08-01T06:45:24;4.28;;;3.00;;
41259;SDS011;26993;48.958;9.330;2022-08-01T06:48:12;10.93;;;2.88;;
41259;SDS011;26993;48.958;9.330;2022-08-01T06:51:00;8.15;;;2.85;;
41259;SDS011;26993;48.958;9.330;2022-08-01T06:53:58;5.40;;;2.85;;
41259;SDS011;26993;48.958;9.330;2022-08-01T06:56:45;3.63;;;2.83;;
41259;SDS011;26993;48.958;9.330;2022-08-01T06:59:32;7.25;;;3.00;;
41259;SDS011;26993;48.958;9.330;2022-08-01T07:02:19;4.97;;;2.40;;
41259;SDS011;26993;48.958;9.330;2022-08-01T07:05:05;3.55;;;2.50;;
41259;SDS011;26993;48.958;9.330;2022-08-01T07:07:54;3.03;;;2.65;;
41259;SDS011;26993;48.958;9.330;2022-08-01T07:10:41;2.63;;;2.42;;
41259;SDS011;26993;48.958;9.330;2022-08-01T07:13:28;4.30;;;2.55;;
41259;SDS011;26993;48.958;9.330;2022-08-01T07:16:16;5.60;;;2.40;;
41259;SDS011;26993;48.958;9.330;2022-08-01T07:19:03;4.68;;;2.38;;
41259;SDS011;26993;48.958;9.330;2022-08-01T07:21:50;3.60;;;2.35;;
41259;SDS011;26993;48.958;9.330;2022-08-01T07:24:38;3.63;;;2.58;;
41259;SDS011;26993;48.958;9.330;2022-08-01T07:27:25;3.55;;;2.40;;
41259;SDS011;26993;48.958;9.330;2022-08-01T07:30:12;4.05;;;2.35;;
41259;SDS011;26993;48.958;9.330;2022-08-01T07:32:59;5.18;;;2.28;;
41259;SDS011;26993;48.958;9.330;2022-08-01T07:35:45;3.60;;;2.30;;
41259;SDS011;26993;48.958;9.330;2022-08-01T07:38:32;2.33;;;2.10;;
41259;SDS011;26993;48.958;9.330;2022-08-01T07:41:20;3.00;;;2.40;;
41259;SDS011;26993;48.958;9.330;2022-08-01T07:44:07;3.28;;;2.00;;
41259;SDS011;26993;48.958;9.330;2022-08-01T07:46:54;3.47;;;2.33;;
41259;SDS011;26993;48.958;9.330;2022-08-01T07:49:41;3.50;;;2.10;;
41259;SDS011;26993;48.958;9.330;2022-08-01T07:52:27;3.95;;;2.45;;
41259;SDS011;26993;48.958;9.330;2022-08-01T07:55:15;6.30;;;2.33;;
41259;SDS011;26993;48.958;9.330;2022-08-01T07:58:03;3.15;;;2.08;;
41259;SDS011;26993;48.958;9.330;2022-08-01T08:00:50;3.50;;;2.47;;
41259;SDS011;26993;48.958;9.330;2022-08-01T08:03:36;2.70;;;2.10;;
41259;SDS011;26993;48.958;9.330;2022-08-01T08:06:23;2.35;;;2.08;;
41259;SDS011;26993;48.958;9.330;2022-08-01T08:09:10;4.18;;;2.40;;
41259;SDS011;26993;48.958;9.330;2022-08-01T08:11:57;4.43;;;2.25;;
41259;SDS011;26993;48.958;9.330;2022-08-01T08:14:45;4.43;;;2.38;;
41259;SDS011;26993;48.958;9.330;2022-08-01T08:17:32;3.15;;;1.95;;
41259;SDS011;26993;48.958;9.330;2022-08-01T08:20:19;6.78;;;2.25;;
41259;SDS011;26993;48.958;9.330;2022-08-01T08:23:09;3.42;;;2.17;;
41259;SDS011;26993;48.958;9.330;2022-08-01T08:26:10;3.63;;;2.25;;
41259;SDS011;26993;48.958;9.330;2022-08-01T08:28:57;3.40;;;2.35;;
41259;SDS011;26993;48.958;9.330;2022-08-01T08:31:45;2.40;;;2.15;;
41259;SDS011;26993;48.958;9.330;2022-08-01T08:34:32;2.88;;;2.00;;
41259;SDS011;26993;48.958;9.330;2022-08-01T08:37:19;2.97;;;2.40;;
41259;SDS011;26993;48.958;9.330;2022-08-01T08:40:06;3.08;;;2.20;;
41259;SDS011;26993;48.958;9.330;2022-08-01T08:42:54;2.60;;;2.20;;
41259;SDS011;26993;48.958;9.330;2022-08-01T08:45:41;3.08;;;1.83;;
41259;SDS011;26993;48.958;9.330;2022-08-01T08:48:31;4.40;;;2.40;;
41259;SDS011;26993;48.958;9.330;2022-08-01T08:51:18;3.50;;;2.38;;
41259;SDS011;26993;48.958;9.330;2022-08-01T08:54:05;5.38;;;2.50;;
41259;SDS011;26993;48.958;9.330;2022-08-01T08:56:53;4.43;;;2.20;;
41259;SDS011;26993;48.958;9.330;2022-08-01T08:59:42;2.60;;;2.25;;
41259;SDS011;26993;48.958;9.330;2022-08-01T09:02:29;3.85;;;2.60;;
41259;SDS011;26993;48.958;9.330;2022-08-01T09:05:17;4.97;;;2.47;;
41259;SDS011;26993;48.958;9.330;2022-08-01T09:08:10;2.83;;;2.17;;
41259;SDS011;26993;48.958;9.330;2022-08-01T09:10:58;4.25;;;2.30;;
41259;SDS011;26993;48.958;9.330;2022-08-01T09:13:48;4.85;;;2.55;;
41259;SDS011;26993;48.958;9.330;2022-08-01T09:16:58;3.92;;;2.10;;
41259;SDS011;26993;48.958;9.330;2022-08-01T09:19:47;4.28;;;2.40;;
41259;SDS011;26993;48.958;9.330;2022-08-01T09:22:38;3.05;;;2.35;;
41259;SDS011;26993;48.958;9.330;2022-08-01T09:25:25;2.97;;;2.63;;
41259;SDS011;26993;48.958;9.330;2022-08-01T09:28:17;4.32;;;2.40;;
41259;SDS011;26993;48.958;9.330;2022-08-01T09:31:13;3.00;;;2.50;;
41259;SDS011;26993;48.958;9.330;2022-08-01T09:34:01;2.63;;;2.30;;
41259;SDS011;26993;48.958;9.330;2022-08-01T09:36:49;3.75;;;2.47;;
41259;SDS011;26993;48.958;9.330;2022-08-01T09:39:39;3.55;;;2.67;;
41259;SDS011;26993;48.958;9.330;2022-08-01T09:42:28;2.95;;;2.65;;
41259;SDS011;26993;48.958;9.330;2022-08-01T09:48:17;3.38;;;2.53;;
41259;SDS011;26993;48.958;9.330;2022-08-01T09:51:05;3.65;;;2.75;;
41259;SDS011;26993;48.958;9.330;2022-08-01T09:53:52;3.83;;;2.60;;
41259;SDS011;26993;48.958;9.330;2022-08-01T09:56:41;3.83;;;2.40;;
41259;SDS011;26993;48.958;9.330;2022-08-01T09:59:34;4.55;;;2.50;;
41259;SDS011;26993;48.958;9.330;2022-08-01T10:02:31;4.88;;;2.40;;
41259;SDS011;26993;48.958;9.330;2022-08-01T10:05:29;4.57;;;2.90;;
41259;SDS011;26993;48.958;9.330;2022-08-01T10:08:17;3.65;;;2.90;;
41259;SDS011;26993;48.958;9.330;2022-08-01T10:11:07;4.07;;;3.25;;
41259;SDS011;26993;48.958;9.330;2022-08-01T10:13:57;3.50;;;3.00;;
41259;SDS011;26993;48.958;9.330;2022-08-01T10:16:45;3.65;;;3.22;;
41259;SDS011;26993;48.958;9.330;2022-08-01T10:19:34;3.90;;;3.53;;
41259;SDS011;26993;48.958;9.330;2022-08-01T10:22:23;7.30;;;3.92;;
41259;SDS011;26993;48.958;9.330;2022-08-01T10:25:11;7.43;;;6.43;;
41259;SDS011;26993;48.958;9.330;2022-08-01T10:28:02;4.85;;;3.80;;
41259;SDS011;26993;48.958;9.330;2022-08-01T10:30:57;5.38;;;4.05;;
41259;SDS011;26993;48.958;9.330;2022-08-01T10:33:44;5.90;;;3.70;;
41259;SDS011;26993;48.958;9.330;2022-08-01T10:36:31;6.10;;;3.90;;
41259;SDS011;26993;48.958;9.330;2022-08-01T10:39:21;4.47;;;3.78;;
41259;SDS011;26993;48.958;9.330;2022-08-01T10:42:09;4.55;;;3.50;;
41259;SDS011;26993;48.958;9.330;2022-08-01T10:44:56;3.60;;;3.30;;
41259;SDS011;26993;48.958;9.330;2022-08-01T10:47:47;4.43;;;3.40;;
41259;SDS011;26993;48.958;9.330;2022-08-01T10:50:49;4.88;;;3.10;;
41259;SDS011;26993;48.958;9.330;2022-08-01T10:53:40;3.80;;;3.47;;
41259;SDS011;26993;48.958;9.330;2022-08-01T10:56:38;4.75;;;3.10;;
41259;SDS011;26993;48.958;9.330;2022-08-01T10:59:26;3.95;;;3.30;;
41259;SDS011;26993;48.958;9.330;2022-08-01T11:02:19;4.03;;;2.90;;
41259;SDS011;26993;48.958;9.330;2022-08-01T11:05:19;2.80;;;2.47;;
41259;SDS011;26993;48.958;9.330;2022-08-01T11:08:09;3.83;;;2.35;;
41259;SDS011;26993;48.958;9.330;2022-08-01T11:11:06;3.78;;;2.55;;
41259;SDS011;26993;48.958;9.330;2022-08-01T11:14:00;5.80;;;2.70;;
41259;SDS011;26993;48.958;9.330;2022-08-01T11:16:51;4.63;;;2.78;;
41259;SDS011;26993;48.958;9.330;2022-08-01T11:26:10;3.60;;;2.63;;
41259;SDS011;26993;48.958;9.330;2022-08-01T11:29:12;3.15;;;2.50;;
41259;SDS011;26993;48.958;9.330;2022-08-01T11:35:11;3.17;;;2.40;;
41259;SDS011;26993;48.958;9.330;2022-08-01T11:38:12;2.75;;;2.10;;
41259;SDS011;26993;48.958;9.330;2022-08-01T11:41:13;3.40;;;2.17;;
41259;SDS011;26993;48.958;9.330;2022-08-01T11:44:03;3.03;;;2.10;;
41259;SDS011;26993;48.958;9.330;2022-08-01T11:46:52;2.53;;;2.33;;
41259;SDS011;26993;48.958;9.330;2022-08-01T11:49:45;3.67;;;2.10;;
41259;SDS011;26993;48.958;9.330;2022-08-01T11:52:35;2.58;;;2.38;;
41259;SDS011;26993;48.958;9.330;2022-08-01T11:55:27;3.70;;;2.45;;
41259;SDS011;26993;48.958;9.330;2022-08-01T11:58:15;2.70;;;2.25;;
41259;SDS011;26993;48.958;9.330;2022-08-01T12:01:07;3.22;;;2.50;;
41259;SDS011;26993;48.958;9.330;2022-08-01T12:03:59;3.47;;;2.33;;
41259;SDS011;26993;48.958;9.330;2022-08-01T12:06:46;4.85;;;2.60;;
41259;SDS011;26993;48.958;9.330;2022-08-01T12:09:33;3.25;;;2.40;;
41259;SDS011;26993;48.958;9.330;2022-08-01T12:12:21;3.55;;;2.35;;
41259;SDS011;26993;48.958;9.330;2022-08-01T12:15:08;2.65;;;2.42;;
41259;SDS011;26993;48.958;9.330;2022-08-01T12:17:56;4.47;;;2.20;;
41259;SDS011;26993;48.958;9.330;2022-08-01T12:20:45;4.07;;;2.97;;
41259;SDS011;26993;48.958;9.330;2022-08-01T12:23:32;4.80;;;2.28;;
41259;SDS011;26993;48.958;9.330;2022-08-01T12:26:19;3.38;;;2.63;;
41259;SDS011;26993;48.958;9.330;2022-08-01T12:29:07;3.17;;;2.33;;
41259;SDS011;26993;48.958;9.330;2022-08-01T12:31:54;2.63;;;2.22;;
41259;SDS011;26993;48.958;9.330;2022-08-01T12:34:41;3.30;;;2.20;;
41259;SDS011;26993;48.958;9.330;2022-08-01T12:37:28;2.25;;;1.90;;
41259;SDS011;26993;48.958;9.330;2022-08-01T12:40:15;2.60;;;2.13;;
41259;SDS011;26993;48.958;9.330;2022-08-01T12:43:04;3.13;;;2.40;;
41259;SDS011;26993;48.958;9.330;2022-08-01T12:45:53;3.28;;;2.70;;
41259;SDS011;26993;48.958;9.330;2022-08-01T12:48:40;3.20;;;2.70;;
41259;SDS011;26993;48.958;9.330;2022-08-01T12:51:27;3.38;;;2.40;;
41259;SDS011;26993;48.958;9.330;2022-08-01T12:54:14;2.33;;;1.83;;
41259;SDS011;26993;48.958;9.330;2022-08-01T12:57:01;4.30;;;1.92;;
41259;SDS011;26993;48.958;9.330;2022-08-01T12:59:48;2.90;;;1.63;;
41259;SDS011;26993;48.958;9.330;2022-08-01T13:02:36;3.45;;;1.80;;
41259;SDS011;26993;48.958;9.330;2022-08-01T13:05:24;4.45;;;1.95;;
41259;SDS011;26993;48.958;9.330;2022-08-01T13:08:11;2.97;;;1.90;;
41259;SDS011;26993;48.958;9.330;2022-08-01T13:11:02;3.05;;;1.75;;
41259;SDS011;26993;48.958;9.330;2022-08-01T13:13:50;5.72;;;1.98;;
41259;SDS011;26993;48.958;9.330;2022-08-01T13:16:47;4.80;;;1.95;;
41259;SDS011;26993;48.958;9.330;2022-08-01T13:19:42;2.17;;;1.90;;
41259;SDS011;26993;48.958;9.330;2022-08-01T13:22:32;4.57;;;2.00;;
41259;SDS011;26993;48.958;9.330;2022-08-01T13:25:19;2.70;;;1.73;;
41259;SDS011;26993;48.958;9.330;2022-08-01T13:28:16;2.78;;;1.80;;
41259;SDS011;26993;48.958;9.330;2022-08-01T13:31:05;5.15;;;2.08;;
41259;SDS011;26993;48.958;9.330;2022-08-01T13:33:53;4.03;;;1.98;;
41259;SDS011;26993;48.958;9.330;2022-08-01T13:36:42;4.60;;;1.77;;
41259;SDS011;26993;48.958;9.330;2022-08-01T13:39:28;2.60;;;2.00;;
41259;SDS011;26993;48.958;9.330;2022-08-01T13:42:29;2.40;;;1.83;;
41259;SDS011;26993;48.958;9.330;2022-08-01T13:45:16;2.22;;;1.95;;
41259;SDS011;26993;48.958;9.330;2022-08-01T13:48:04;2.42;;;2.15;;
41259;SDS011;26993;48.958;9.330;2022-08-01T13:50:51;4.38;;;2.38;;
41259;SDS011;26993;48.958;9.330;2022-08-01T13:53:39;5.70;;;1.80;;
41259;SDS011;26993;48.958;9.330;2022-08-01T13:56:26;4.38;;;2.10;;
41259;SDS011;26993;48.958;9.330;2022-08-01T13:59:13;2.42;;;2.00;;
41259;SDS011;26993;48.958;9.330;2022-08-01T14:02:00;2.65;;;2.22;;
41259;SDS011;26993;48.958;9.330;2022-08-01T14:04:46;3.67;;;2.28;;
41259;SDS011;26993;48.958;9.330;2022-08-01T14:07:34;2.40;;;2.20;;
41259;SDS011;26993;48.958;9.330;2022-08-01T14:10:22;2.38;;;1.90;;
41259;SDS011;26993;48.958;9.330;2022-08-01T14:13:09;4.07;;;2.38;;
41259;SDS011;26993;48.958;9.330;2022-08-01T14:15:56;2.95;;;2.30;;
41259;SDS011;26993;48.958;9.330;2022-08-01T14:18:43;5.65;;;2.30;;
41259;SDS011;26993;48.958;9.330;2022-08-01T14:21:29;4.53;;;2.28;;
41259;SDS011;26993;48.958;9.330;2022-08-01T14:24:16;5.00;;;2.20;;
41259;SDS011;26993;48.958;9.330;2022-08-01T14:27:04;2.70;;;2.38;;
41259;SDS011;26993;48.958;9.330;2022-08-01T14:29:51;2.42;;;2.22;;
41259;SDS011;26993;48.958;9.330;2022-08-01T14:32:38;2.30;;;2.08;;
41259;SDS011;26993;48.958;9.330;2022-08-01T14:35:24;3.40;;;2.22;;
41259;SDS011;26993;48.958;9.330;2022-08-01T14:38:11;2.75;;;2.10;;
41259;SDS011;26993;48.958;9.330;2022-08-01T14:40:58;7.40;;;2.30;;
41259;SDS011;26993;48.958;9.330;2022-08-01T14:43:46;2.78;;;2.17;;
41259;SDS011;26993;48.958;9.330;2022-08-01T14:46:33;2.67;;;2.22;;
41259;SDS011;26993;48.958;9.330;2022-08-01T14:49:20;2.22;;;1.98;;
41259;SDS011;26993;48.958;9.330;2022-08-01T14:52:07;2.35;;;2.15;;
41259;SDS011;26993;48.958;9.330;2022-08-01T14:54:53;2.38;;;2.17;;
41259;SDS011;26993;48.958;9.330;2022-08-01T14:57:40;2.50;;;2.10;;
41259;SDS011;26993;48.958;9.330;2022-08-01T15:00:28;2.67;;;2.20;;
41259;SDS011;26993;48.958;9.330;2022-08-01T15:03:15;3.08;;;2.00;;
41259;SDS011;26993;48.958;9.330;2022-08-01T15:06:02;4.38;;;2.03;;
41259;SDS011;26993;48.958;9.330;2022-08-01T15:08:48;2.75;;;1.83;;
41259;SDS011;26993;48.958;9.330;2022-08-01T15:11:35;4.43;;;1.80;;
41259;SDS011;26993;48.958;9.330;2022-08-01T15:14:22;2.10;;;1.88;;
41259;SDS011;26993;48.958;9.330;2022-08-01T15:17:28;4.55;;;2.00;;
41259;SDS011;26993;48.958;9.330;2022-08-01T15:20:17;1.77;;;1.67;;
41259;SDS011;26993;48.958;9.330;2022-08-01T15:23:04;1.95;;;1.75;;
41259;SDS011;26993;48.958;9.330;2022-08-01T15:25:50;4.40;;;2.10;;
41259;SDS011;26993;48.958;9.330;2022-08-01T15:28:37;3.33;;;1.70;;
41259;SDS011;26993;48.958;9.330;2022-08-01T15:31:24;2.25;;;1.90;;
41259;SDS011;26993;48.958;9.330;2022-08-01T15:34:12;3.90;;;1.92;;
41259;SDS011;26993;48.958;9.330;2022-08-01T15:36:59;3.40;;;2.15;;
41259;SDS011;26993;48.958;9.330;2022-08-01T15:39:45;1.70;;;1.60;;
41259;SDS011;26993;48.958;9.330;2022-08-01T15:42:32;3.25;;;2.00;;
41259;SDS011;26993;48.958;9.330;2022-08-01T15:45:20;5.43;;;1.95;;
41259;SDS011;26993;48.958;9.330;2022-08-01T15:48:06;2.30;;;1.60;;
41259;SDS011;26993;48.958;9.330;2022-08-01T15:50:55;3.30;;;1.83;;
41259;SDS011;26993;48.958;9.330;2022-08-01T15:53:41;3.33;;;1.60;;
41259;SDS011;26993;48.958;9.330;2022-08-01T15:56:29;4.10;;;1.80;;
41259;SDS011;26993;48.958;9.330;2022-08-01T15:59:16;2.65;;;1.80;;
41259;SDS011;26993;48.958;9.330;2022-08-01T16:02:03;2.97;;;1.90;;
41259;SDS011;26993;48.958;9.330;2022-08-01T16:04:49;1.70;;;1.60;;
41259;SDS011;26993;48.958;9.330;2022-08-01T16:07:37;2.60;;;2.00;;
41259;SDS011;26993;48.958;9.330;2022-08-01T16:10:24;4.22;;;1.90;;
41259;SDS011;26993;48.958;9.330;2022-08-01T16:13:12;2.90;;;1.60;;
41259;SDS011;26993;48.958;9.330;2022-08-01T16:15:59;3.60;;;1.90;;
41259;SDS011;26993;48.958;9.330;2022-08-01T16:18:49;2.92;;;1.85;;
41259;SDS011;26993;48.958;9.330;2022-08-01T16:21:36;2.38;;;1.80;;
41259;SDS011;26993;48.958;9.330;2022-08-01T16:24:24;1.95;;;1.60;;
41259;SDS011;26993;48.958;9.330;2022-08-01T16:27:13;3.15;;;1.42;;
41259;SDS011;26993;48.958;9.330;2022-08-01T16:30:00;4.65;;;1.58;;
41259;SDS011;26993;48.958;9.330;2022-08-01T16:32:46;4.70;;;1.65;;
41259;SDS011;26993;48.958;9.330;2022-08-01T16:35:33;3.17;;;1.60;;
41259;SDS011;26993;48.958;9.330;2022-08-01T16:38:20;5.40;;;1.90;;
41259;SDS011;26993;48.958;9.330;2022-08-01T16:41:09;2.30;;;1.77;;
41259;SDS011;26993;48.958;9.330;2022-08-01T16:43:55;1.90;;;1.60;;
41259;SDS011;26993;48.958;9.330;2022-08-01T16:46:42;2.85;;;1.85;;
41259;SDS011;26993;48.958;9.330;2022-08-01T16:49:29;2.08;;;1.58;;
41259;SDS011;26993;48.958;9.330;2022-08-01T16:52:16;2.33;;;1.75;;
41259;SDS011;26993;48.958;9.330;2022-08-01T16:55:03;3.05;;;1.60;;
41259;SDS011;26993;48.958;9.330;2022-08-01T16:57:52;1.92;;;1.70;;
41259;SDS011;26993;48.958;9.330;2022-08-01T17:00:38;2.38;;;1.60;;
41259;SDS011;26993;48.958;9.330;2022-08-01T17:03:26;3.53;;;1.73;;
41259;SDS011;26993;48.958;9.330;2022-08-01T17:06:13;3.58;;;1.48;;
41259;SDS011;26993;48.958;9.330;2022-08-01T17:09:00;1.65;;;1.55;;